sensor_id;sensor_type;location;lat;lon;timestamp;P1;durP1;ratioP1;P2;durP2;ratioP2
23129;SDS011;11734;51.046;13.778;2024-01-27T00:00:09;3.47;;;1.67;;
23129;SDS011;11734;51.046;13.778;2024-01-27T00:02:37;2.73;;;1.40;;
23129;SDS011;11734;51.046;13.778;2024-01-27T00:05:05;3.57;;;1.70;;
23129;SDS011;11734;51.046;13.778;2024-01-27T00:07:33;4.73;;;1.40;;
23129;SDS011;11734;51.046;13.778;2024-01-27T00:10:01;4.80;;;1.43;;
23129;SDS011;11734;51.046;13.778;2024-01-27T00:12:29;5.47;;;2.33;;
23129;SDS011;11734;51.046;13.778;2024-01-27T00:14:56;3.17;;;1.60;;
23129;SDS011;11734;51.046;13.778;2024-01-27T00:17:24;2.40;;;1.50;;
23129;SDS011;11734;51.046;13.778;2024-01-27T00:19:54;4.53;;;1.60;;
23129;SDS011;11734;51.046;13.778;2024-01-27T00:22:21;3.13;;;1.53;;
23129;SDS011;11734;51.046;13.778;2024-01-27T00:24:49;4.87;;;1.80;;
23129;SDS011;11734;51.046;13.778;2024-01-27T00:27:16;4.70;;;1.80;;
23129;SDS011;11734;51.046;13.778;2024-01-27T00:29:44;4.57;;;1.73;;
23129;SDS011;11734;51.046;13.778;2024-01-27T00:32:12;3.63;;;1.60;;
23129;SDS011;11734;51.046;13.778;2024-01-27T00:34:39;3.20;;;1.33;;
23129;SDS011;11734;51.046;13.778;2024-01-27T00:37:07;5.73;;;1.80;;
23129;SDS011;11734;51.046;13.778;2024-01-27T00:39:34;3.97;;;1.80;;
23129;SDS011;11734;51.046;13.778;2024-01-27T00:42:01;4.13;;;1.63;;
23129;SDS011;11734;51.046;13.778;2024-01-27T00:44:29;4.73;;;2.03;;
23129;SDS011;11734;51.046;13.778;2024-01-27T00:46:57;3.10;;;1.80;;
23129;SDS011;11734;51.046;13.778;2024-01-27T00:49:25;5.73;;;2.03;;
23129;SDS011;11734;51.046;13.778;2024-01-27T00:51:53;4.33;;;1.93;;
23129;SDS011;11734;51.046;13.778;2024-01-27T00:54:20;4.13;;;1.50;;
23129;SDS011;11734;51.046;13.778;2024-01-27T00:56:48;4.77;;;1.60;;
23129;SDS011;11734;51.046;13.778;2024-01-27T00:59:15;4.17;;;1.80;;
23129;SDS011;11734;51.046;13.778;2024-01-27T01:01:43;4.67;;;2.17;;
23129;SDS011;11734;51.046;13.778;2024-01-27T01:04:10;3.83;;;1.57;;
23129;SDS011;11734;51.046;13.778;2024-01-27T01:06:41;3.93;;;1.70;;
23129;SDS011;11734;51.046;13.778;2024-01-27T01:09:08;4.77;;;1.60;;
23129;SDS011;11734;51.046;13.778;2024-01-27T01:11:36;7.37;;;2.10;;
23129;SDS011;11734;51.046;13.778;2024-01-27T01:14:06;3.87;;;1.80;;
23129;SDS011;11734;51.046;13.778;2024-01-27T01:16:33;4.73;;;1.97;;
23129;SDS011;11734;51.046;13.778;2024-01-27T01:19:01;4.33;;;1.67;;
23129;SDS011;11734;51.046;13.778;2024-01-27T01:21:29;3.03;;;1.60;;
23129;SDS011;11734;51.046;13.778;2024-01-27T01:23:56;4.53;;;1.80;;
23129;SDS011;11734;51.046;13.778;2024-01-27T01:26:24;4.43;;;1.67;;
23129;SDS011;11734;51.046;13.778;2024-01-27T01:28:51;3.57;;;1.80;;
23129;SDS011;11734;51.046;13.778;2024-01-27T01:31:19;4.23;;;1.43;;
23129;SDS011;11734;51.046;13.778;2024-01-27T01:33:46;3.93;;;1.63;;
23129;SDS011;11734;51.046;13.778;2024-01-27T01:36:14;4.30;;;1.97;;
23129;SDS011;11734;51.046;13.778;2024-01-27T01:38:42;3.60;;;1.70;;
23129;SDS011;11734;51.046;13.778;2024-01-27T01:41:09;5.77;;;1.90;;
23129;SDS011;11734;51.046;13.778;2024-01-27T01:43:37;5.77;;;1.93;;
23129;SDS011;11734;51.046;13.778;2024-01-27T01:46:04;5.07;;;1.90;;
23129;SDS011;11734;51.046;13.778;2024-01-27T01:48:32;5.70;;;1.80;;
23129;SDS011;11734;51.046;13.778;2024-01-27T01:51:00;2.93;;;1.80;;
23129;SDS011;11734;51.046;13.778;2024-01-27T01:53:28;3.13;;;1.77;;
23129;SDS011;11734;51.046;13.778;2024-01-27T01:55:55;2.50;;;1.87;;
23129;SDS011;11734;51.046;13.778;2024-01-27T01:58:23;8.03;;;1.93;;
23129;SDS011;11734;51.046;13.778;2024-01-27T02:00:51;4.67;;;1.73;;
23129;SDS011;11734;51.046;13.778;2024-01-27T02:03:18;4.53;;;1.67;;
23129;SDS011;11734;51.046;13.778;2024-01-27T02:05:46;5.00;;;2.10;;
23129;SDS011;11734;51.046;13.778;2024-01-27T02:08:13;6.33;;;2.00;;
23129;SDS011;11734;51.046;13.778;2024-01-27T02:10:41;6.00;;;1.73;;
23129;SDS011;11734;51.046;13.778;2024-01-27T02:13:18;5.50;;;1.70;;
23129;SDS011;11734;51.046;13.778;2024-01-27T02:15:47;5.10;;;1.90;;
23129;SDS011;11734;51.046;13.778;2024-01-27T02:18:16;3.93;;;1.60;;
23129;SDS011;11734;51.046;13.778;2024-01-27T02:20:44;5.33;;;1.70;;
23129;SDS011;11734;51.046;13.778;2024-01-27T02:23:12;5.87;;;1.73;;
23129;SDS011;11734;51.046;13.778;2024-01-27T02:25:39;3.90;;;1.60;;
23129;SDS011;11734;51.046;13.778;2024-01-27T02:28:07;4.10;;;1.90;;
23129;SDS011;11734;51.046;13.778;2024-01-27T02:30:35;9.10;;;2.23;;
23129;SDS011;11734;51.046;13.778;2024-01-27T02:33:02;5.27;;;2.10;;
23129;SDS011;11734;51.046;13.778;2024-01-27T02:35:30;6.27;;;1.90;;
23129;SDS011;11734;51.046;13.778;2024-01-27T02:37:58;8.30;;;1.70;;
23129;SDS011;11734;51.046;13.778;2024-01-27T02:40:25;4.30;;;1.63;;
23129;SDS011;11734;51.046;13.778;2024-01-27T02:42:53;5.73;;;2.13;;
23129;SDS011;11734;51.046;13.778;2024-01-27T02:45:20;6.07;;;1.67;;
23129;SDS011;11734;51.046;13.778;2024-01-27T02:47:48;7.43;;;1.77;;
23129;SDS011;11734;51.046;13.778;2024-01-27T02:50:15;6.27;;;1.70;;
23129;SDS011;11734;51.046;13.778;2024-01-27T02:52:43;6.33;;;2.03;;
23129;SDS011;11734;51.046;13.778;2024-01-27T02:55:10;6.17;;;1.90;;
23129;SDS011;11734;51.046;13.778;2024-01-27T02:57:38;5.03;;;2.07;;
23129;SDS011;11734;51.046;13.778;2024-01-27T03:00:07;6.10;;;2.10;;
23129;SDS011;11734;51.046;13.778;2024-01-27T03:02:35;5.13;;;1.73;;
23129;SDS011;11734;51.046;13.778;2024-01-27T03:05:03;6.33;;;2.00;;
23129;SDS011;11734;51.046;13.778;2024-01-27T03:07:31;6.10;;;2.17;;
23129;SDS011;11734;51.046;13.778;2024-01-27T03:09:58;3.57;;;1.93;;
23129;SDS011;11734;51.046;13.778;2024-01-27T03:12:26;4.47;;;1.77;;
23129;SDS011;11734;51.046;13.778;2024-01-27T03:14:53;6.30;;;1.67;;
23129;SDS011;11734;51.046;13.778;2024-01-27T03:17:21;5.23;;;2.40;;
23129;SDS011;11734;51.046;13.778;2024-01-27T03:19:48;4.50;;;1.90;;
23129;SDS011;11734;51.046;13.778;2024-01-27T03:22:16;4.23;;;2.13;;
23129;SDS011;11734;51.046;13.778;2024-01-27T03:24:43;4.73;;;1.80;;
23129;SDS011;11734;51.046;13.778;2024-01-27T03:27:11;7.20;;;2.33;;
23129;SDS011;11734;51.046;13.778;2024-01-27T03:29:38;5.63;;;1.60;;
23129;SDS011;11734;51.046;13.778;2024-01-27T03:32:06;8.83;;;1.93;;
23129;SDS011;11734;51.046;13.778;2024-01-27T03:34:33;8.37;;;2.50;;
23129;SDS011;11734;51.046;13.778;2024-01-27T03:37:01;5.53;;;1.90;;
23129;SDS011;11734;51.046;13.778;2024-01-27T03:39:28;6.53;;;1.93;;
23129;SDS011;11734;51.046;13.778;2024-01-27T03:41:56;9.10;;;2.47;;
23129;SDS011;11734;51.046;13.778;2024-01-27T03:44:23;7.07;;;1.80;;
23129;SDS011;11734;51.046;13.778;2024-01-27T03:46:51;8.13;;;2.00;;
23129;SDS011;11734;51.046;13.778;2024-01-27T03:49:18;7.20;;;2.20;;
23129;SDS011;11734;51.046;13.778;2024-01-27T03:51:46;6.77;;;2.33;;
23129;SDS011;11734;51.046;13.778;2024-01-27T03:54:13;5.47;;;2.03;;
23129;SDS011;11734;51.046;13.778;2024-01-27T03:56:41;9.83;;;2.87;;
23129;SDS011;11734;51.046;13.778;2024-01-27T03:59:08;7.33;;;1.87;;
23129;SDS011;11734;51.046;13.778;2024-01-27T04:01:37;5.03;;;1.80;;
23129;SDS011;11734;51.046;13.778;2024-01-27T04:04:05;4.93;;;2.10;;
23129;SDS011;11734;51.046;13.778;2024-01-27T04:06:36;4.47;;;1.90;;
23129;SDS011;11734;51.046;13.778;2024-01-27T04:09:06;8.47;;;2.13;;
23129;SDS011;11734;51.046;13.778;2024-01-27T04:11:37;7.93;;;2.37;;
23129;SDS011;11734;51.046;13.778;2024-01-27T04:14:05;8.37;;;2.57;;
23129;SDS011;11734;51.046;13.778;2024-01-27T04:16:33;8.53;;;2.07;;
23129;SDS011;11734;51.046;13.778;2024-01-27T04:19:01;7.50;;;2.63;;
23129;SDS011;11734;51.046;13.778;2024-01-27T04:21:29;8.97;;;2.43;;
23129;SDS011;11734;51.046;13.778;2024-01-27T04:23:56;8.33;;;2.33;;
23129;SDS011;11734;51.046;13.778;2024-01-27T04:26:24;7.97;;;2.10;;
23129;SDS011;11734;51.046;13.778;2024-01-27T04:28:51;5.03;;;1.70;;
23129;SDS011;11734;51.046;13.778;2024-01-27T04:31:19;5.67;;;1.73;;
23129;SDS011;11734;51.046;13.778;2024-01-27T04:33:46;7.73;;;2.07;;
23129;SDS011;11734;51.046;13.778;2024-01-27T04:36:14;7.00;;;1.87;;
23129;SDS011;11734;51.046;13.778;2024-01-27T04:38:50;5.47;;;2.00;;
23129;SDS011;11734;51.046;13.778;2024-01-27T04:41:18;8.63;;;2.07;;
23129;SDS011;11734;51.046;13.778;2024-01-27T04:43:45;4.70;;;1.87;;
23129;SDS011;11734;51.046;13.778;2024-01-27T04:46:13;10.63;;;2.57;;
23129;SDS011;11734;51.046;13.778;2024-01-27T04:48:40;7.47;;;2.07;;
23129;SDS011;11734;51.046;13.778;2024-01-27T04:51:08;7.93;;;2.20;;
23129;SDS011;11734;51.046;13.778;2024-01-27T04:53:36;6.30;;;1.93;;
23129;SDS011;11734;51.046;13.778;2024-01-27T04:56:04;5.73;;;2.00;;
23129;SDS011;11734;51.046;13.778;2024-01-27T04:58:34;4.27;;;1.97;;
23129;SDS011;11734;51.046;13.778;2024-01-27T05:01:03;8.93;;;2.17;;
23129;SDS011;11734;51.046;13.778;2024-01-27T05:03:30;8.27;;;2.43;;
23129;SDS011;11734;51.046;13.778;2024-01-27T05:05:58;8.47;;;2.60;;
23129;SDS011;11734;51.046;13.778;2024-01-27T05:08:25;8.13;;;2.00;;
23129;SDS011;11734;51.046;13.778;2024-01-27T05:10:53;6.87;;;1.90;;
23129;SDS011;11734;51.046;13.778;2024-01-27T05:13:24;5.63;;;1.77;;
23129;SDS011;11734;51.046;13.778;2024-01-27T05:15:52;10.27;;;1.97;;
23129;SDS011;11734;51.046;13.778;2024-01-27T05:18:19;7.50;;;2.07;;
23129;SDS011;11734;51.046;13.778;2024-01-27T05:20:47;6.43;;;2.13;;
23129;SDS011;11734;51.046;13.778;2024-01-27T05:23:15;5.93;;;2.20;;
23129;SDS011;11734;51.046;13.778;2024-01-27T05:25:43;8.63;;;2.43;;
23129;SDS011;11734;51.046;13.778;2024-01-27T05:28:11;8.07;;;2.03;;
23129;SDS011;11734;51.046;13.778;2024-01-27T05:30:38;6.80;;;1.93;;
23129;SDS011;11734;51.046;13.778;2024-01-27T05:33:08;8.27;;;2.10;;
23129;SDS011;11734;51.046;13.778;2024-01-27T05:35:36;7.57;;;2.30;;
23129;SDS011;11734;51.046;13.778;2024-01-27T05:38:03;6.27;;;2.33;;
23129;SDS011;11734;51.046;13.778;2024-01-27T05:40:31;7.97;;;2.37;;
23129;SDS011;11734;51.046;13.778;2024-01-27T05:42:58;10.53;;;2.17;;
23129;SDS011;11734;51.046;13.778;2024-01-27T05:45:26;7.20;;;1.70;;
23129;SDS011;11734;51.046;13.778;2024-01-27T05:47:55;9.03;;;2.00;;
23129;SDS011;11734;51.046;13.778;2024-01-27T05:50:23;4.17;;;1.60;;
23129;SDS011;11734;51.046;13.778;2024-01-27T05:52:51;9.20;;;2.17;;
23129;SDS011;11734;51.046;13.778;2024-01-27T05:55:19;6.60;;;2.33;;
23129;SDS011;11734;51.046;13.778;2024-01-27T05:57:46;6.30;;;2.13;;
23129;SDS011;11734;51.046;13.778;2024-01-27T06:00:14;6.60;;;1.87;;
23129;SDS011;11734;51.046;13.778;2024-01-27T06:02:41;7.07;;;1.97;;
23129;SDS011;11734;51.046;13.778;2024-01-27T06:05:09;6.40;;;2.33;;
23129;SDS011;11734;51.046;13.778;2024-01-27T06:07:39;10.97;;;2.70;;
23129;SDS011;11734;51.046;13.778;2024-01-27T06:10:08;7.13;;;1.93;;
23129;SDS011;11734;51.046;13.778;2024-01-27T06:12:37;5.83;;;2.00;;
23129;SDS011;11734;51.046;13.778;2024-01-27T06:15:06;8.30;;;2.30;;
23129;SDS011;11734;51.046;13.778;2024-01-27T06:17:35;5.73;;;2.23;;
23129;SDS011;11734;51.046;13.778;2024-01-27T06:20:03;8.43;;;2.10;;
23129;SDS011;11734;51.046;13.778;2024-01-27T06:22:31;7.80;;;2.63;;
23129;SDS011;11734;51.046;13.778;2024-01-27T06:24:59;10.73;;;2.33;;
23129;SDS011;11734;51.046;13.778;2024-01-27T06:27:26;7.43;;;2.40;;
23129;SDS011;11734;51.046;13.778;2024-01-27T06:29:54;8.97;;;2.07;;
23129;SDS011;11734;51.046;13.778;2024-01-27T06:32:21;8.20;;;2.23;;
23129;SDS011;11734;51.046;13.778;2024-01-27T06:34:49;8.47;;;2.60;;
23129;SDS011;11734;51.046;13.778;2024-01-27T06:37:16;8.20;;;2.40;;
23129;SDS011;11734;51.046;13.778;2024-01-27T06:39:48;9.80;;;2.30;;
23129;SDS011;11734;51.046;13.778;2024-01-27T06:42:16;6.17;;;2.23;;
23129;SDS011;11734;51.046;13.778;2024-01-27T06:44:43;11.50;;;2.53;;
23129;SDS011;11734;51.046;13.778;2024-01-27T06:47:10;9.73;;;2.27;;
23129;SDS011;11734;51.046;13.778;2024-01-27T06:49:38;5.30;;;2.07;;
23129;SDS011;11734;51.046;13.778;2024-01-27T06:52:05;7.63;;;2.00;;
23129;SDS011;11734;51.046;13.778;2024-01-27T06:54:33;5.77;;;1.80;;
23129;SDS011;11734;51.046;13.778;2024-01-27T06:57:02;8.67;;;1.97;;
23129;SDS011;11734;51.046;13.778;2024-01-27T06:59:31;8.20;;;2.33;;
23129;SDS011;11734;51.046;13.778;2024-01-27T07:01:58;8.73;;;2.50;;
23129;SDS011;11734;51.046;13.778;2024-01-27T07:04:26;10.80;;;3.07;;
23129;SDS011;11734;51.046;13.778;2024-01-27T07:06:53;11.60;;;2.97;;
23129;SDS011;11734;51.046;13.778;2024-01-27T07:09:21;8.03;;;2.10;;
23129;SDS011;11734;51.046;13.778;2024-01-27T07:11:49;4.70;;;1.70;;
23129;SDS011;11734;51.046;13.778;2024-01-27T07:14:19;8.20;;;2.20;;
23129;SDS011;11734;51.046;13.778;2024-01-27T07:16:46;7.50;;;2.33;;
23129;SDS011;11734;51.046;13.778;2024-01-27T07:19:13;7.13;;;2.07;;
23129;SDS011;11734;51.046;13.778;2024-01-27T07:21:42;8.83;;;2.50;;
23129;SDS011;11734;51.046;13.778;2024-01-27T07:24:10;7.60;;;2.03;;
23129;SDS011;11734;51.046;13.778;2024-01-27T07:26:38;8.07;;;2.40;;
23129;SDS011;11734;51.046;13.778;2024-01-27T07:29:05;10.53;;;2.40;;
23129;SDS011;11734;51.046;13.778;2024-01-27T07:31:32;5.90;;;2.33;;
23129;SDS011;11734;51.046;13.778;2024-01-27T07:34:00;11.00;;;2.87;;
23129;SDS011;11734;51.046;13.778;2024-01-27T07:36:28;5.17;;;2.30;;
23129;SDS011;11734;51.046;13.778;2024-01-27T07:38:59;11.03;;;2.63;;
23129;SDS011;11734;51.046;13.778;2024-01-27T07:41:26;4.70;;;1.93;;
23129;SDS011;11734;51.046;13.778;2024-01-27T07:43:57;7.33;;;2.20;;
23129;SDS011;11734;51.046;13.778;2024-01-27T07:46:37;7.77;;;2.43;;
23129;SDS011;11734;51.046;13.778;2024-01-27T07:49:06;9.13;;;2.50;;
23129;SDS011;11734;51.046;13.778;2024-01-27T07:51:34;9.23;;;2.63;;
23129;SDS011;11734;51.046;13.778;2024-01-27T07:54:01;6.27;;;2.33;;
23129;SDS011;11734;51.046;13.778;2024-01-27T07:56:29;5.57;;;2.10;;
23129;SDS011;11734;51.046;13.778;2024-01-27T07:58:57;8.03;;;2.53;;
23129;SDS011;11734;51.046;13.778;2024-01-27T08:01:24;8.27;;;2.70;;
23129;SDS011;11734;51.046;13.778;2024-01-27T08:03:52;8.70;;;2.60;;
23129;SDS011;11734;51.046;13.778;2024-01-27T08:06:26;4.60;;;2.30;;
23129;SDS011;11734;51.046;13.778;2024-01-27T08:08:55;10.03;;;2.77;;
23129;SDS011;11734;51.046;13.778;2024-01-27T08:11:23;5.17;;;2.27;;
23129;SDS011;11734;51.046;13.778;2024-01-27T08:13:51;6.57;;;2.30;;
23129;SDS011;11734;51.046;13.778;2024-01-27T08:16:18;7.70;;;2.43;;
23129;SDS011;11734;51.046;13.778;2024-01-27T08:18:46;10.47;;;2.57;;
23129;SDS011;11734;51.046;13.778;2024-01-27T08:21:13;8.43;;;2.40;;
23129;SDS011;11734;51.046;13.778;2024-01-27T08:23:41;7.20;;;2.43;;
23129;SDS011;11734;51.046;13.778;2024-01-27T08:26:08;6.80;;;2.20;;
23129;SDS011;11734;51.046;13.778;2024-01-27T08:28:35;7.63;;;2.30;;
23129;SDS011;11734;51.046;13.778;2024-01-27T08:31:03;6.40;;;2.50;;
23129;SDS011;11734;51.046;13.778;2024-01-27T08:33:31;6.57;;;2.50;;
23129;SDS011;11734;51.046;13.778;2024-01-27T08:35:59;7.57;;;2.40;;
23129;SDS011;11734;51.046;13.778;2024-01-27T08:38:26;7.70;;;2.33;;
23129;SDS011;11734;51.046;13.778;2024-01-27T08:40:54;6.33;;;2.50;;
23129;SDS011;11734;51.046;13.778;2024-01-27T08:43:21;8.27;;;2.60;;
23129;SDS011;11734;51.046;13.778;2024-01-27T08:45:49;11.30;;;2.87;;
23129;SDS011;11734;51.046;13.778;2024-01-27T08:48:16;4.77;;;2.13;;
23129;SDS011;11734;51.046;13.778;2024-01-27T08:50:44;13.23;;;2.70;;
23129;SDS011;11734;51.046;13.778;2024-01-27T08:53:11;9.00;;;2.33;;
23129;SDS011;11734;51.046;13.778;2024-01-27T08:55:39;6.10;;;2.50;;
23129;SDS011;11734;51.046;13.778;2024-01-27T08:58:06;7.77;;;3.10;;
23129;SDS011;11734;51.046;13.778;2024-01-27T09:00:34;7.90;;;2.30;;
23129;SDS011;11734;51.046;13.778;2024-01-27T09:03:01;6.83;;;2.17;;
23129;SDS011;11734;51.046;13.778;2024-01-27T09:05:29;10.90;;;2.47;;
23129;SDS011;11734;51.046;13.778;2024-01-27T09:07:57;9.10;;;2.30;;
23129;SDS011;11734;51.046;13.778;2024-01-27T09:10:25;6.93;;;2.67;;
23129;SDS011;11734;51.046;13.778;2024-01-27T09:12:53;9.20;;;2.10;;
23129;SDS011;11734;51.046;13.778;2024-01-27T09:15:20;6.03;;;2.50;;
23129;SDS011;11734;51.046;13.778;2024-01-27T09:17:48;8.10;;;2.63;;
23129;SDS011;11734;51.046;13.778;2024-01-27T09:20:15;12.60;;;2.80;;
23129;SDS011;11734;51.046;13.778;2024-01-27T09:22:43;7.47;;;2.53;;
23129;SDS011;11734;51.046;13.778;2024-01-27T09:25:13;8.93;;;2.67;;
23129;SDS011;11734;51.046;13.778;2024-01-27T09:27:41;8.00;;;2.60;;
23129;SDS011;11734;51.046;13.778;2024-01-27T09:30:08;10.00;;;3.00;;
23129;SDS011;11734;51.046;13.778;2024-01-27T09:32:36;9.20;;;2.83;;
23129;SDS011;11734;51.046;13.778;2024-01-27T09:35:04;7.40;;;2.50;;
23129;SDS011;11734;51.046;13.778;2024-01-27T09:37:32;10.90;;;2.70;;
23129;SDS011;11734;51.046;13.778;2024-01-27T09:39:59;11.03;;;2.77;;
23129;SDS011;11734;51.046;13.778;2024-01-27T09:42:29;8.63;;;3.17;;
23129;SDS011;11734;51.046;13.778;2024-01-27T09:45:00;7.03;;;2.50;;
23129;SDS011;11734;51.046;13.778;2024-01-27T09:47:29;7.27;;;2.57;;
23129;SDS011;11734;51.046;13.778;2024-01-27T09:49:57;11.17;;;3.03;;
23129;SDS011;11734;51.046;13.778;2024-01-27T09:52:25;8.83;;;2.40;;
23129;SDS011;11734;51.046;13.778;2024-01-27T09:54:52;11.77;;;3.37;;
23129;SDS011;11734;51.046;13.778;2024-01-27T09:57:20;9.43;;;3.80;;
23129;SDS011;11734;51.046;13.778;2024-01-27T09:59:49;13.77;;;3.70;;
23129;SDS011;11734;51.046;13.778;2024-01-27T10:02:17;11.33;;;3.00;;
23129;SDS011;11734;51.046;13.778;2024-01-27T10:04:47;11.97;;;3.20;;
23129;SDS011;11734;51.046;13.778;2024-01-27T10:07:15;11.63;;;3.07;;
23129;SDS011;11734;51.046;13.778;2024-01-27T10:09:43;14.20;;;3.37;;
23129;SDS011;11734;51.046;13.778;2024-01-27T10:12:10;9.50;;;3.20;;
23129;SDS011;11734;51.046;13.778;2024-01-27T10:14:40;10.37;;;3.23;;
23129;SDS011;11734;51.046;13.778;2024-01-27T10:17:09;4.23;;;2.30;;
23129;SDS011;11734;51.046;13.778;2024-01-27T10:19:46;5.00;;;2.80;;
23129;SDS011;11734;51.046;13.778;2024-01-27T10:22:14;6.43;;;2.97;;
23129;SDS011;11734;51.046;13.778;2024-01-27T10:24:41;13.73;;;3.67;;
23129;SDS011;11734;51.046;13.778;2024-01-27T10:27:09;7.30;;;2.83;;
23129;SDS011;11734;51.046;13.778;2024-01-27T10:29:37;8.10;;;3.23;;
23129;SDS011;11734;51.046;13.778;2024-01-27T10:32:08;15.00;;;3.37;;
23129;SDS011;11734;51.046;13.778;2024-01-27T10:34:36;7.63;;;3.37;;
23129;SDS011;11734;51.046;13.778;2024-01-27T10:37:04;9.00;;;2.73;;
23129;SDS011;11734;51.046;13.778;2024-01-27T10:39:32;5.57;;;2.70;;
23129;SDS011;11734;51.046;13.778;2024-01-27T10:42:00;8.87;;;2.67;;
23129;SDS011;11734;51.046;13.778;2024-01-27T10:44:30;9.50;;;3.37;;
23129;SDS011;11734;51.046;13.778;2024-01-27T10:47:01;10.40;;;3.30;;
23129;SDS011;11734;51.046;13.778;2024-01-27T10:49:31;8.20;;;2.90;;
23129;SDS011;11734;51.046;13.778;2024-01-27T10:52:05;6.47;;;2.47;;
23129;SDS011;11734;51.046;13.778;2024-01-27T10:54:40;8.27;;;3.27;;
23129;SDS011;11734;51.046;13.778;2024-01-27T10:57:09;7.07;;;2.93;;
23129;SDS011;11734;51.046;13.778;2024-01-27T10:59:38;8.67;;;3.00;;
23129;SDS011;11734;51.046;13.778;2024-01-27T11:02:08;13.77;;;4.20;;
23129;SDS011;11734;51.046;13.778;2024-01-27T11:04:40;9.43;;;3.33;;
23129;SDS011;11734;51.046;13.778;2024-01-27T11:07:09;8.23;;;3.00;;
23129;SDS011;11734;51.046;13.778;2024-01-27T11:09:38;8.03;;;3.40;;
23129;SDS011;11734;51.046;13.778;2024-01-27T11:12:08;11.13;;;3.97;;
23129;SDS011;11734;51.046;13.778;2024-01-27T11:14:36;11.00;;;3.43;;
23129;SDS011;11734;51.046;13.778;2024-01-27T11:17:08;11.33;;;3.30;;
23129;SDS011;11734;51.046;13.778;2024-01-27T11:19:35;10.50;;;3.73;;
23129;SDS011;11734;51.046;13.778;2024-01-27T11:22:06;11.33;;;3.70;;
23129;SDS011;11734;51.046;13.778;2024-01-27T11:24:33;12.57;;;3.53;;
23129;SDS011;11734;51.046;13.778;2024-01-27T11:27:04;12.47;;;3.33;;
23129;SDS011;11734;51.046;13.778;2024-01-27T11:29:33;9.03;;;3.13;;
23129;SDS011;11734;51.046;13.778;2024-01-27T11:32:02;16.70;;;4.00;;
23129;SDS011;11734;51.046;13.778;2024-01-27T11:34:41;10.33;;;3.23;;
23129;SDS011;11734;51.046;13.778;2024-01-27T11:37:13;8.70;;;3.40;;
23129;SDS011;11734;51.046;13.778;2024-01-27T11:39:42;8.73;;;3.10;;
23129;SDS011;11734;51.046;13.778;2024-01-27T11:42:11;7.47;;;3.13;;
23129;SDS011;11734;51.046;13.778;2024-01-27T11:44:40;8.30;;;3.20;;
23129;SDS011;11734;51.046;13.778;2024-01-27T11:47:15;10.73;;;3.43;;
23129;SDS011;11734;51.046;13.778;2024-01-27T11:49:53;12.13;;;3.27;;
23129;SDS011;11734;51.046;13.778;2024-01-27T11:52:24;12.17;;;3.17;;
23129;SDS011;11734;51.046;13.778;2024-01-27T11:54:58;11.70;;;3.17;;
23129;SDS011;11734;51.046;13.778;2024-01-27T11:57:26;11.87;;;3.63;;
23129;SDS011;11734;51.046;13.778;2024-01-27T11:59:54;8.17;;;3.30;;
23129;SDS011;11734;51.046;13.778;2024-01-27T12:02:23;9.57;;;3.50;;
23129;SDS011;11734;51.046;13.778;2024-01-27T12:04:51;7.87;;;2.70;;
23129;SDS011;11734;51.046;13.778;2024-01-27T12:07:19;11.33;;;2.87;;
23129;SDS011;11734;51.046;13.778;2024-01-27T12:09:50;11.93;;;2.90;;
23129;SDS011;11734;51.046;13.778;2024-01-27T12:12:18;10.63;;;2.97;;
23129;SDS011;11734;51.046;13.778;2024-01-27T12:14:47;7.47;;;2.93;;
23129;SDS011;11734;51.046;13.778;2024-01-27T12:17:16;8.83;;;2.90;;
23129;SDS011;11734;51.046;13.778;2024-01-27T12:19:52;6.57;;;2.50;;
23129;SDS011;11734;51.046;13.778;2024-01-27T12:22:24;8.47;;;2.83;;
23129;SDS011;11734;51.046;13.778;2024-01-27T12:24:59;7.03;;;2.33;;
23129;SDS011;11734;51.046;13.778;2024-01-27T12:27:35;9.03;;;3.27;;
23129;SDS011;11734;51.046;13.778;2024-01-27T12:30:05;6.93;;;2.70;;
23129;SDS011;11734;51.046;13.778;2024-01-27T12:32:39;6.87;;;2.43;;
23129;SDS011;11734;51.046;13.778;2024-01-27T12:35:07;6.83;;;2.80;;
23129;SDS011;11734;51.046;13.778;2024-01-27T12:37:35;5.90;;;2.60;;
23129;SDS011;11734;51.046;13.778;2024-01-27T12:40:37;9.13;;;3.67;;
23129;SDS011;11734;51.046;13.778;2024-01-27T12:42:57;9.13;;;2.80;;
23129;SDS011;11734;51.046;13.778;2024-01-27T12:45:25;9.03;;;2.87;;
23129;SDS011;11734;51.046;13.778;2024-01-27T12:47:55;9.33;;;2.90;;
23129;SDS011;11734;51.046;13.778;2024-01-27T12:50:24;8.07;;;3.33;;
23129;SDS011;11734;51.046;13.778;2024-01-27T12:52:51;9.47;;;3.23;;
23129;SDS011;11734;51.046;13.778;2024-01-27T12:55:20;7.33;;;2.60;;
23129;SDS011;11734;51.046;13.778;2024-01-27T12:57:48;6.30;;;2.63;;
23129;SDS011;11734;51.046;13.778;2024-01-27T13:00:15;8.27;;;2.30;;
23129;SDS011;11734;51.046;13.778;2024-01-27T13:02:43;11.83;;;3.30;;
23129;SDS011;11734;51.046;13.778;2024-01-27T13:05:11;5.57;;;2.63;;
23129;SDS011;11734;51.046;13.778;2024-01-27T13:07:39;7.67;;;3.10;;
23129;SDS011;11734;51.046;13.778;2024-01-27T13:10:07;7.43;;;2.70;;
23129;SDS011;11734;51.046;13.778;2024-01-27T13:12:34;7.47;;;2.80;;
23129;SDS011;11734;51.046;13.778;2024-01-27T13:15:02;4.33;;;2.43;;
23129;SDS011;11734;51.046;13.778;2024-01-27T13:17:30;8.47;;;3.23;;
23129;SDS011;11734;51.046;13.778;2024-01-27T13:19:57;8.03;;;2.57;;
23129;SDS011;11734;51.046;13.778;2024-01-27T13:22:24;8.23;;;3.10;;
23129;SDS011;11734;51.046;13.778;2024-01-27T13:24:52;7.80;;;3.00;;
23129;SDS011;11734;51.046;13.778;2024-01-27T13:27:20;8.23;;;2.80;;
23129;SDS011;11734;51.046;13.778;2024-01-27T13:29:48;7.10;;;2.77;;
23129;SDS011;11734;51.046;13.778;2024-01-27T13:32:16;9.37;;;3.27;;
23129;SDS011;11734;51.046;13.778;2024-01-27T13:34:43;11.00;;;3.10;;
23129;SDS011;11734;51.046;13.778;2024-01-27T13:37:11;8.80;;;3.07;;
23129;SDS011;11734;51.046;13.778;2024-01-27T13:39:38;6.00;;;3.07;;
23129;SDS011;11734;51.046;13.778;2024-01-27T13:42:06;7.93;;;2.57;;
23129;SDS011;11734;51.046;13.778;2024-01-27T13:44:34;7.70;;;3.00;;
23129;SDS011;11734;51.046;13.778;2024-01-27T13:47:03;8.73;;;3.17;;
23129;SDS011;11734;51.046;13.778;2024-01-27T13:49:34;11.13;;;3.40;;
23129;SDS011;11734;51.046;13.778;2024-01-27T13:52:03;7.87;;;2.83;;
23129;SDS011;11734;51.046;13.778;2024-01-27T13:54:31;6.20;;;2.40;;
23129;SDS011;11734;51.046;13.778;2024-01-27T13:57:01;9.80;;;3.10;;
23129;SDS011;11734;51.046;13.778;2024-01-27T13:59:30;11.30;;;3.47;;
23129;SDS011;11734;51.046;13.778;2024-01-27T14:01:58;7.63;;;2.87;;
23129;SDS011;11734;51.046;13.778;2024-01-27T14:04:25;6.03;;;2.53;;
23129;SDS011;11734;51.046;13.778;2024-01-27T14:06:53;7.43;;;2.90;;
23129;SDS011;11734;51.046;13.778;2024-01-27T14:09:21;5.83;;;3.17;;
23129;SDS011;11734;51.046;13.778;2024-01-27T14:11:53;9.30;;;3.07;;
23129;SDS011;11734;51.046;13.778;2024-01-27T14:14:21;8.23;;;2.83;;
23129;SDS011;11734;51.046;13.778;2024-01-27T14:16:48;6.27;;;2.70;;
23129;SDS011;11734;51.046;13.778;2024-01-27T14:19:16;10.13;;;3.33;;
23129;SDS011;11734;51.046;13.778;2024-01-27T14:21:44;8.80;;;2.77;;
23129;SDS011;11734;51.046;13.778;2024-01-27T14:24:12;10.03;;;2.87;;
23129;SDS011;11734;51.046;13.778;2024-01-27T14:26:39;10.33;;;2.87;;
23129;SDS011;11734;51.046;13.778;2024-01-27T14:29:07;8.17;;;2.87;;
23129;SDS011;11734;51.046;13.778;2024-01-27T14:31:34;3.93;;;2.70;;
23129;SDS011;11734;51.046;13.778;2024-01-27T14:34:03;7.03;;;3.17;;
23129;SDS011;11734;51.046;13.778;2024-01-27T14:36:30;6.60;;;2.93;;
23129;SDS011;11734;51.046;13.778;2024-01-27T14:38:58;5.20;;;2.73;;